sensor_id;sensor_type;location;lat;lon;timestamp;P1;durP1;ratioP1;P2;durP2;ratioP2
48323;SDS011;34133;55.714;37.670;2022-08-19T00:02:20;9.40;;;3.83;;
48323;SDS011;34133;55.714;37.670;2022-08-19T00:04:46;8.40;;;4.05;;
48323;SDS011;34133;55.714;37.670;2022-08-19T00:07:13;9.80;;;3.47;;
48323;SDS011;34133;55.714;37.670;2022-08-19T00:09:39;11.13;;;3.80;;
48323;SDS011;34133;55.714;37.670;2022-08-19T00:12:04;10.20;;;3.85;;
48323;SDS011;34133;55.714;37.670;2022-08-19T00:14:30;7.38;;;3.60;;
48323;SDS011;34133;55.714;37.670;2022-08-19T00:16:56;10.57;;;3.65;;
48323;SDS011;34133;55.714;37.670;2022-08-19T00:19:22;12.05;;;4.18;;
48323;SDS011;34133;55.714;37.670;2022-08-19T00:21:48;12.20;;;4.13;;
48323;SDS011;34133;55.714;37.670;2022-08-19T00:24:14;9.55;;;3.92;;
48323;SDS011;34133;55.714;37.670;2022-08-19T00:26:41;12.05;;;3.92;;
48323;SDS011;34133;55.714;37.670;2022-08-19T00:29:07;8.18;;;3.63;;
48323;SDS011;34133;55.714;37.670;2022-08-19T00:31:33;8.13;;;3.80;;
48323;SDS011;34133;55.714;37.670;2022-08-19T00:33:59;10.98;;;4.85;;
48323;SDS011;34133;55.714;37.670;2022-08-19T00:36:24;15.82;;;5.10;;
48323;SDS011;34133;55.714;37.670;2022-08-19T00:38:50;14.63;;;4.47;;
48323;SDS011;34133;55.714;37.670;2022-08-19T00:41:19;10.68;;;3.88;;
48323;SDS011;34133;55.714;37.670;2022-08-19T00:43:59;13.60;;;4.40;;
48323;SDS011;34133;55.714;37.670;2022-08-19T00:46:25;12.80;;;4.88;;
48323;SDS011;34133;55.714;37.670;2022-08-19T00:48:50;11.30;;;4.25;;
48323;SDS011;34133;55.714;37.670;2022-08-19T00:51:16;9.15;;;4.80;;
48323;SDS011;34133;55.714;37.670;2022-08-19T00:53:41;14.48;;;4.88;;
48323;SDS011;34133;55.714;37.670;2022-08-19T00:56:08;11.80;;;4.80;;
48323;SDS011;34133;55.714;37.670;2022-08-19T00:58:34;8.82;;;5.00;;
48323;SDS011;34133;55.714;37.670;2022-08-19T01:01:00;13.35;;;5.13;;
48323;SDS011;34133;55.714;37.670;2022-08-19T01:03:26;13.98;;;4.70;;
48323;SDS011;34133;55.714;37.670;2022-08-19T01:05:52;10.13;;;4.90;;
48323;SDS011;34133;55.714;37.670;2022-08-19T01:08:19;11.73;;;4.90;;
48323;SDS011;34133;55.714;37.670;2022-08-19T01:10:47;11.85;;;5.57;;
48323;SDS011;34133;55.714;37.670;2022-08-19T01:13:14;17.17;;;5.32;;
48323;SDS011;34133;55.714;37.670;2022-08-19T01:15:47;14.45;;;4.97;;
48323;SDS011;34133;55.714;37.670;2022-08-19T01:18:14;13.55;;;4.82;;
48323;SDS011;34133;55.714;37.670;2022-08-19T01:20:40;13.50;;;5.32;;
48323;SDS011;34133;55.714;37.670;2022-08-19T01:23:06;12.30;;;4.90;;
48323;SDS011;34133;55.714;37.670;2022-08-19T01:25:38;12.38;;;5.00;;
48323;SDS011;34133;55.714;37.670;2022-08-19T01:28:04;14.60;;;4.78;;
48323;SDS011;34133;55.714;37.670;2022-08-19T01:30:32;11.43;;;5.38;;
48323;SDS011;34133;55.714;37.670;2022-08-19T01:32:58;14.35;;;4.95;;
48323;SDS011;34133;55.714;37.670;2022-08-19T01:35:25;19.33;;;5.43;;
48323;SDS011;34133;55.714;37.670;2022-08-19T01:38:02;13.35;;;4.90;;
48323;SDS011;34133;55.714;37.670;2022-08-19T01:40:32;11.27;;;5.05;;
48323;SDS011;34133;55.714;37.670;2022-08-19T01:42:58;10.88;;;5.00;;
48323;SDS011;34133;55.714;37.670;2022-08-19T01:45:25;12.02;;;5.75;;
48323;SDS011;34133;55.714;37.670;2022-08-19T01:47:51;11.13;;;5.40;;
48323;SDS011;34133;55.714;37.670;2022-08-19T01:50:17;13.60;;;6.13;;
48323;SDS011;34133;55.714;37.670;2022-08-19T01:52:43;14.60;;;5.75;;
48323;SDS011;34133;55.714;37.670;2022-08-19T01:55:10;12.68;;;5.85;;
48323;SDS011;34133;55.714;37.670;2022-08-19T01:57:36;11.05;;;5.65;;
48323;SDS011;34133;55.714;37.670;2022-08-19T02:00:04;12.25;;;5.05;;
48323;SDS011;34133;55.714;37.670;2022-08-19T02:02:37;17.40;;;5.80;;
48323;SDS011;34133;55.714;37.670;2022-08-19T02:05:02;12.02;;;5.53;;
48323;SDS011;34133;55.714;37.670;2022-08-19T02:07:28;14.30;;;6.03;;
48323;SDS011;34133;55.714;37.670;2022-08-19T02:09:54;19.17;;;5.82;;
48323;SDS011;34133;55.714;37.670;2022-08-19T02:12:20;10.85;;;5.40;;
48323;SDS011;34133;55.714;37.670;2022-08-19T02:14:46;9.50;;;5.57;;
48323;SDS011;34133;55.714;37.670;2022-08-19T02:17:11;15.45;;;5.25;;
48323;SDS011;34133;55.714;37.670;2022-08-19T02:19:37;14.02;;;6.20;;
48323;SDS011;34133;55.714;37.670;2022-08-19T02:22:02;15.57;;;6.13;;
48323;SDS011;34133;55.714;37.670;2022-08-19T02:24:28;13.75;;;6.15;;
48323;SDS011;34133;55.714;37.670;2022-08-19T02:26:54;12.00;;;6.30;;
48323;SDS011;34133;55.714;37.670;2022-08-19T02:29:19;16.80;;;5.53;;
48323;SDS011;34133;55.714;37.670;2022-08-19T02:31:45;15.02;;;6.00;;
48323;SDS011;34133;55.714;37.670;2022-08-19T02:34:11;15.52;;;6.32;;
48323;SDS011;34133;55.714;37.670;2022-08-19T02:36:37;13.43;;;5.57;;
48323;SDS011;34133;55.714;37.670;2022-08-19T02:39:02;14.05;;;6.53;;
48323;SDS011;34133;55.714;37.670;2022-08-19T02:41:29;16.40;;;6.20;;
48323;SDS011;34133;55.714;37.670;2022-08-19T02:43:56;14.65;;;5.88;;
48323;SDS011;34133;55.714;37.670;2022-08-19T02:46:24;12.57;;;5.93;;
48323;SDS011;34133;55.714;37.670;2022-08-19T02:48:52;14.00;;;5.13;;
48323;SDS011;34133;55.714;37.670;2022-08-19T02:51:19;14.82;;;5.30;;
48323;SDS011;34133;55.714;37.670;2022-08-19T02:53:45;11.02;;;5.40;;
48323;SDS011;34133;55.714;37.670;2022-08-19T02:56:10;13.63;;;5.70;;
48323;SDS011;34133;55.714;37.670;2022-08-19T02:58:36;15.43;;;6.15;;
48323;SDS011;34133;55.714;37.670;2022-08-19T03:01:01;14.25;;;6.22;;
48323;SDS011;34133;55.714;37.670;2022-08-19T03:03:27;13.43;;;6.18;;
48323;SDS011;34133;55.714;37.670;2022-08-19T03:06:02;10.57;;;5.75;;
48323;SDS011;34133;55.714;37.670;2022-08-19T03:08:28;11.50;;;5.50;;
48323;SDS011;34133;55.714;37.670;2022-08-19T03:10:53;14.07;;;6.32;;
48323;SDS011;34133;55.714;37.670;2022-08-19T03:13:19;21.15;;;6.68;;
48323;SDS011;34133;55.714;37.670;2022-08-19T03:15:45;16.33;;;6.28;;
48323;SDS011;34133;55.714;37.670;2022-08-19T03:18:11;13.48;;;5.63;;
48323;SDS011;34133;55.714;37.670;2022-08-19T03:20:49;11.48;;;5.43;;
48323;SDS011;34133;55.714;37.670;2022-08-19T03:23:15;19.92;;;5.75;;
48323;SDS011;34133;55.714;37.670;2022-08-19T03:25:42;14.88;;;5.47;;
48323;SDS011;34133;55.714;37.670;2022-08-19T03:28:09;12.30;;;5.65;;
48323;SDS011;34133;55.714;37.670;2022-08-19T03:30:34;12.65;;;5.47;;
48323;SDS011;34133;55.714;37.670;2022-08-19T03:33:00;11.95;;;5.78;;
48323;SDS011;34133;55.714;37.670;2022-08-19T03:35:25;12.02;;;5.45;;
48323;SDS011;34133;55.714;37.670;2022-08-19T03:37:51;19.00;;;6.63;;
48323;SDS011;34133;55.714;37.670;2022-08-19T03:40:18;13.60;;;5.68;;
48323;SDS011;34133;55.714;37.670;2022-08-19T03:42:44;15.23;;;5.30;;
48323;SDS011;34133;55.714;37.670;2022-08-19T03:45:09;13.52;;;4.88;;
48323;SDS011;34133;55.714;37.670;2022-08-19T03:47:35;16.70;;;5.50;;
48323;SDS011;34133;55.714;37.670;2022-08-19T03:50:02;17.90;;;5.50;;
48323;SDS011;34133;55.714;37.670;2022-08-19T03:52:28;15.88;;;5.60;;
48323;SDS011;34133;55.714;37.670;2022-08-19T03:54:54;14.68;;;6.07;;
48323;SDS011;34133;55.714;37.670;2022-08-19T03:57:19;15.02;;;6.15;;
48323;SDS011;34133;55.714;37.670;2022-08-19T03:59:44;12.93;;;5.80;;
48323;SDS011;34133;55.714;37.670;2022-08-19T04:02:11;11.45;;;5.22;;
48323;SDS011;34133;55.714;37.670;2022-08-19T04:04:37;13.20;;;5.50;;
48323;SDS011;34133;55.714;37.670;2022-08-19T04:07:03;13.48;;;5.75;;
48323;SDS011;34133;55.714;37.670;2022-08-19T04:09:29;14.95;;;5.60;;
48323;SDS011;34133;55.714;37.670;2022-08-19T04:11:55;18.20;;;5.78;;
48323;SDS011;34133;55.714;37.670;2022-08-19T04:14:21;12.95;;;6.05;;
48323;SDS011;34133;55.714;37.670;2022-08-19T04:16:47;14.63;;;5.93;;
48323;SDS011;34133;55.714;37.670;2022-08-19T04:19:13;14.93;;;6.03;;
48323;SDS011;34133;55.714;37.670;2022-08-19T04:21:39;16.95;;;6.25;;
48323;SDS011;34133;55.714;37.670;2022-08-19T04:24:05;16.65;;;6.50;;
48323;SDS011;34133;55.714;37.670;2022-08-19T04:26:32;14.77;;;6.13;;
48323;SDS011;34133;55.714;37.670;2022-08-19T04:28:58;13.13;;;6.43;;
48323;SDS011;34133;55.714;37.670;2022-08-19T04:31:25;14.15;;;6.47;;
48323;SDS011;34133;55.714;37.670;2022-08-19T04:33:54;17.00;;;5.82;;
48323;SDS011;34133;55.714;37.670;2022-08-19T04:36:22;18.08;;;6.32;;
48323;SDS011;34133;55.714;37.670;2022-08-19T04:38:49;21.15;;;6.75;;
48323;SDS011;34133;55.714;37.670;2022-08-19T04:41:15;17.80;;;6.32;;
48323;SDS011;34133;55.714;37.670;2022-08-19T04:43:59;17.65;;;5.78;;
48323;SDS011;34133;55.714;37.670;2022-08-19T04:46:25;15.30;;;6.22;;
48323;SDS011;34133;55.714;37.670;2022-08-19T04:48:50;15.70;;;6.88;;
48323;SDS011;34133;55.714;37.670;2022-08-19T04:51:16;14.05;;;6.00;;
48323;SDS011;34133;55.714;37.670;2022-08-19T04:53:42;16.92;;;6.22;;
48323;SDS011;34133;55.714;37.670;2022-08-19T04:56:12;14.02;;;6.28;;
48323;SDS011;34133;55.714;37.670;2022-08-19T04:58:38;14.40;;;6.25;;
48323;SDS011;34133;55.714;37.670;2022-08-19T05:01:05;12.23;;;5.57;;
48323;SDS011;34133;55.714;37.670;2022-08-19T05:03:30;11.55;;;5.63;;
48323;SDS011;34133;55.714;37.670;2022-08-19T05:06:03;8.98;;;5.30;;
48323;SDS011;34133;55.714;37.670;2022-08-19T05:08:29;15.98;;;6.32;;
48323;SDS011;34133;55.714;37.670;2022-08-19T05:10:55;12.88;;;5.68;;
48323;SDS011;34133;55.714;37.670;2022-08-19T05:13:22;11.60;;;5.65;;
48323;SDS011;34133;55.714;37.670;2022-08-19T05:15:58;13.07;;;5.82;;
48323;SDS011;34133;55.714;37.670;2022-08-19T05:18:23;16.63;;;5.25;;
48323;SDS011;34133;55.714;37.670;2022-08-19T05:21:11;15.77;;;5.45;;
48323;SDS011;34133;55.714;37.670;2022-08-19T05:23:56;18.35;;;5.97;;
48323;SDS011;34133;55.714;37.670;2022-08-19T05:26:22;19.23;;;5.70;;
48323;SDS011;34133;55.714;37.670;2022-08-19T05:28:48;16.13;;;6.30;;
48323;SDS011;34133;55.714;37.670;2022-08-19T05:31:13;16.23;;;6.00;;
48323;SDS011;34133;55.714;37.670;2022-08-19T05:33:39;12.32;;;5.60;;
48323;SDS011;34133;55.714;37.670;2022-08-19T05:36:05;14.10;;;5.93;;
48323;SDS011;34133;55.714;37.670;2022-08-19T05:38:33;12.45;;;5.72;;
48323;SDS011;34133;55.714;37.670;2022-08-19T05:40:58;15.93;;;5.55;;
48323;SDS011;34133;55.714;37.670;2022-08-19T05:43:24;12.43;;;5.50;;
48323;SDS011;34133;55.714;37.670;2022-08-19T05:45:49;10.38;;;4.95;;
48323;SDS011;34133;55.714;37.670;2022-08-19T05:48:15;19.15;;;5.45;;
48323;SDS011;34133;55.714;37.670;2022-08-19T05:50:45;12.82;;;5.13;;
48323;SDS011;34133;55.714;37.670;2022-08-19T05:53:12;15.98;;;4.93;;
48323;SDS011;34133;55.714;37.670;2022-08-19T05:55:38;18.30;;;4.78;;
48323;SDS011;34133;55.714;37.670;2022-08-19T05:58:04;16.92;;;5.03;;
48323;SDS011;34133;55.714;37.670;2022-08-19T06:00:33;15.27;;;5.15;;
48323;SDS011;34133;55.714;37.670;2022-08-19T06:02:58;13.70;;;5.68;;
48323;SDS011;34133;55.714;37.670;2022-08-19T06:05:28;13.90;;;5.03;;
48323;SDS011;34133;55.714;37.670;2022-08-19T06:07:54;12.85;;;4.88;;
48323;SDS011;34133;55.714;37.670;2022-08-19T06:10:20;15.63;;;4.90;;
48323;SDS011;34133;55.714;37.670;2022-08-19T06:12:47;14.80;;;4.93;;
48323;SDS011;34133;55.714;37.670;2022-08-19T06:15:13;20.00;;;6.35;;
48323;SDS011;34133;55.714;37.670;2022-08-19T06:17:39;15.73;;;5.30;;
48323;SDS011;34133;55.714;37.670;2022-08-19T06:20:08;12.88;;;5.30;;
48323;SDS011;34133;55.714;37.670;2022-08-19T06:22:37;14.32;;;5.05;;
48323;SDS011;34133;55.714;37.670;2022-08-19T06:25:03;13.10;;;5.18;;
48323;SDS011;34133;55.714;37.670;2022-08-19T06:27:29;20.17;;;5.35;;
48323;SDS011;34133;55.714;37.670;2022-08-19T06:29:56;15.93;;;5.72;;
48323;SDS011;34133;55.714;37.670;2022-08-19T06:32:21;17.88;;;5.10;;
48323;SDS011;34133;55.714;37.670;2022-08-19T06:34:47;18.38;;;4.60;;
48323;SDS011;34133;55.714;37.670;2022-08-19T06:37:12;13.73;;;5.20;;
48323;SDS011;34133;55.714;37.670;2022-08-19T06:39:39;13.52;;;4.88;;
48323;SDS011;34133;55.714;37.670;2022-08-19T06:42:06;14.90;;;4.97;;
48323;SDS011;34133;55.714;37.670;2022-08-19T06:44:34;11.55;;;4.63;;
48323;SDS011;34133;55.714;37.670;2022-08-19T06:47:05;16.65;;;5.03;;
48323;SDS011;34133;55.714;37.670;2022-08-19T06:49:31;11.90;;;4.82;;
48323;SDS011;34133;55.714;37.670;2022-08-19T06:51:57;12.10;;;5.40;;
48323;SDS011;34133;55.714;37.670;2022-08-19T06:54:26;14.70;;;5.35;;
48323;SDS011;34133;55.714;37.670;2022-08-19T06:56:53;8.98;;;4.55;;
48323;SDS011;34133;55.714;37.670;2022-08-19T06:59:20;13.77;;;4.45;;
48323;SDS011;34133;55.714;37.670;2022-08-19T07:01:53;11.00;;;4.78;;
48323;SDS011;34133;55.714;37.670;2022-08-19T07:04:21;13.35;;;5.28;;
48323;SDS011;34133;55.714;37.670;2022-08-19T07:06:47;12.98;;;5.38;;
48323;SDS011;34133;55.714;37.670;2022-08-19T07:09:14;11.52;;;5.13;;
48323;SDS011;34133;55.714;37.670;2022-08-19T07:11:43;12.85;;;5.07;;
48323;SDS011;34133;55.714;37.670;2022-08-19T07:14:09;12.23;;;4.38;;
48323;SDS011;34133;55.714;37.670;2022-08-19T07:16:34;11.40;;;5.03;;
48323;SDS011;34133;55.714;37.670;2022-08-19T07:19:00;16.85;;;5.25;;
48323;SDS011;34133;55.714;37.670;2022-08-19T07:21:26;14.63;;;5.25;;
48323;SDS011;34133;55.714;37.670;2022-08-19T07:23:53;9.52;;;4.60;;
48323;SDS011;34133;55.714;37.670;2022-08-19T07:26:21;12.27;;;5.00;;
48323;SDS011;34133;55.714;37.670;2022-08-19T07:28:47;11.45;;;5.20;;
48323;SDS011;34133;55.714;37.670;2022-08-19T07:31:15;11.20;;;4.68;;
48323;SDS011;34133;55.714;37.670;2022-08-19T07:33:41;15.50;;;5.63;;
48323;SDS011;34133;55.714;37.670;2022-08-19T07:36:09;13.98;;;5.30;;
48323;SDS011;34133;55.714;37.670;2022-08-19T07:38:36;10.38;;;4.28;;
48323;SDS011;34133;55.714;37.670;2022-08-19T07:41:02;9.48;;;4.78;;
48323;SDS011;34133;55.714;37.670;2022-08-19T07:43:28;17.98;;;5.50;;
48323;SDS011;34133;55.714;37.670;2022-08-19T07:45:54;18.02;;;5.45;;
48323;SDS011;34133;55.714;37.670;2022-08-19T07:48:25;16.08;;;4.82;;
48323;SDS011;34133;55.714;37.670;2022-08-19T07:50:55;19.10;;;5.07;;
48323;SDS011;34133;55.714;37.670;2022-08-19T07:53:22;10.68;;;3.88;;
48323;SDS011;34133;55.714;37.670;2022-08-19T07:55:48;14.57;;;4.97;;
48323;SDS011;34133;55.714;37.670;2022-08-19T07:58:18;9.88;;;4.72;;
48323;SDS011;34133;55.714;37.670;2022-08-19T08:00:44;15.15;;;4.47;;
48323;SDS011;34133;55.714;37.670;2022-08-19T08:03:10;17.70;;;4.95;;
48323;SDS011;34133;55.714;37.670;2022-08-19T08:05:35;17.98;;;5.10;;
48323;SDS011;34133;55.714;37.670;2022-08-19T08:08:19;10.32;;;4.75;;
48323;SDS011;34133;55.714;37.670;2022-08-19T08:13:29;15.13;;;5.10;;
48323;SDS011;34133;55.714;37.670;2022-08-19T08:15:55;10.30;;;4.97;;
48323;SDS011;34133;55.714;37.670;2022-08-19T08:18:21;16.60;;;5.38;;
48323;SDS011;34133;55.714;37.670;2022-08-19T08:20:46;10.52;;;4.72;;
48323;SDS011;34133;55.714;37.670;2022-08-19T08:23:12;13.35;;;5.03;;
48323;SDS011;34133;55.714;37.670;2022-08-19T08:25:56;13.52;;;5.40;;
48323;SDS011;34133;55.714;37.670;2022-08-19T08:28:22;10.38;;;4.10;;
48323;SDS011;34133;55.714;37.670;2022-08-19T08:30:48;15.00;;;4.35;;
48323;SDS011;34133;55.714;37.670;2022-08-19T08:33:21;12.95;;;4.80;;
48323;SDS011;34133;55.714;37.670;2022-08-19T08:35:48;12.90;;;4.17;;
48323;SDS011;34133;55.714;37.670;2022-08-19T08:38:14;9.73;;;3.85;;
48323;SDS011;34133;55.714;37.670;2022-08-19T08:45:45;13.13;;;3.15;;
48323;SDS011;34133;55.714;37.670;2022-08-19T08:48:24;10.15;;;3.40;;
48323;SDS011;34133;55.714;37.670;2022-08-19T08:50:56;17.17;;;3.38;;
48323;SDS011;34133;55.714;37.670;2022-08-19T08:53:22;17.70;;;3.22;;
48323;SDS011;34133;55.714;37.670;2022-08-19T08:55:49;14.73;;;2.97;;
48323;SDS011;34133;55.714;37.670;2022-08-19T08:58:20;6.78;;;2.40;;
48323;SDS011;34133;55.714;37.670;2022-08-19T09:00:48;12.80;;;3.95;;
48323;SDS011;34133;55.714;37.670;2022-08-19T09:03:19;8.35;;;3.55;;
48323;SDS011;34133;55.714;37.670;2022-08-19T09:10:55;12.77;;;3.00;;
48323;SDS011;34133;55.714;37.670;2022-08-19T09:15:59;10.75;;;3.50;;
48323;SDS011;34133;55.714;37.670;2022-08-19T09:18:37;10.05;;;3.08;;
48323;SDS011;34133;55.714;37.670;2022-08-19T09:21:03;9.73;;;3.30;;
48323;SDS011;34133;55.714;37.670;2022-08-19T09:23:28;14.68;;;3.85;;
48323;SDS011;34133;55.714;37.670;2022-08-19T09:25:54;10.80;;;3.88;;
48323;SDS011;34133;55.714;37.670;2022-08-19T09:28:19;9.75;;;3.40;;
48323;SDS011;34133;55.714;37.670;2022-08-19T09:30:45;7.85;;;3.50;;
48323;SDS011;34133;55.714;37.670;2022-08-19T09:33:10;13.10;;;3.63;;
48323;SDS011;34133;55.714;37.670;2022-08-19T09:35:36;11.13;;;3.75;;
48323;SDS011;34133;55.714;37.670;2022-08-19T09:38:01;11.90;;;3.63;;
48323;SDS011;34133;55.714;37.670;2022-08-19T09:40:27;9.40;;;3.25;;
48323;SDS011;34133;55.714;37.670;2022-08-19T09:42:53;13.63;;;3.47;;
48323;SDS011;34133;55.714;37.670;2022-08-19T09:45:20;13.98;;;3.22;;
48323;SDS011;34133;55.714;37.670;2022-08-19T09:47:47;14.23;;;2.97;;
48323;SDS011;34133;55.714;37.670;2022-08-19T09:50:12;15.05;;;3.05;;
48323;SDS011;34133;55.714;37.670;2022-08-19T09:52:38;15.18;;;3.25;;
48323;SDS011;34133;55.714;37.670;2022-08-19T09:55:04;8.68;;;2.47;;
48323;SDS011;34133;55.714;37.670;2022-08-19T09:57:30;16.35;;;3.28;;
48323;SDS011;34133;55.714;37.670;2022-08-19T09:59:55;9.52;;;2.75;;
48323;SDS011;34133;55.714;37.670;2022-08-19T10:02:21;9.70;;;2.30;;
48323;SDS011;34133;55.714;37.670;2022-08-19T10:04:46;15.23;;;2.55;;
48323;SDS011;34133;55.714;37.670;2022-08-19T10:07:30;7.78;;;2.78;;
48323;SDS011;34133;55.714;37.670;2022-08-19T10:09:56;11.23;;;3.03;;
48323;SDS011;34133;55.714;37.670;2022-08-19T10:12:22;9.85;;;2.80;;
48323;SDS011;34133;55.714;37.670;2022-08-19T10:14:47;12.43;;;2.25;;
48323;SDS011;34133;55.714;37.670;2022-08-19T10:17:13;10.20;;;2.30;;
48323;SDS011;34133;55.714;37.670;2022-08-19T10:19:39;8.88;;;1.98;;
48323;SDS011;34133;55.714;37.670;2022-08-19T10:22:06;10.77;;;2.30;;
48323;SDS011;34133;55.714;37.670;2022-08-19T10:24:32;15.48;;;3.08;;
48323;SDS011;34133;55.714;37.670;2022-08-19T10:26:59;14.48;;;2.60;;
48323;SDS011;34133;55.714;37.670;2022-08-19T10:29:25;10.48;;;2.42;;
48323;SDS011;34133;55.714;37.670;2022-08-19T10:31:53;15.75;;;2.55;;
48323;SDS011;34133;55.714;37.670;2022-08-19T10:34:19;19.08;;;2.92;;
48323;SDS011;34133;55.714;37.670;2022-08-19T10:36:45;9.38;;;2.17;;
48323;SDS011;34133;55.714;37.670;2022-08-19T10:39:10;11.68;;;2.10;;
48323;SDS011;34133;55.714;37.670;2022-08-19T10:41:38;10.40;;;2.20;;
48323;SDS011;34133;55.714;37.670;2022-08-19T10:44:05;14.30;;;2.30;;
48323;SDS011;34133;55.714;37.670;2022-08-19T10:46:31;17.23;;;3.60;;
48323;SDS011;34133;55.714;37.670;2022-08-19T10:48:58;13.68;;;2.88;;
48323;SDS011;34133;55.714;37.670;2022-08-19T10:51:24;7.03;;;2.42;;
48323;SDS011;34133;55.714;37.670;2022-08-19T10:54:08;11.02;;;2.40;;
48323;SDS011;34133;55.714;37.670;2022-08-19T10:56:34;13.90;;;2.60;;
48323;SDS011;34133;55.714;37.670;2022-08-19T10:59:23;10.13;;;2.28;;
48323;SDS011;34133;55.714;37.670;2022-08-19T11:01:49;12.50;;;2.10;;
48323;SDS011;34133;55.714;37.670;2022-08-19T11:04:15;8.68;;;2.17;;
48323;SDS011;34133;55.714;37.670;2022-08-19T11:06:43;12.32;;;2.10;;
48323;SDS011;34133;55.714;37.670;2022-08-19T11:09:14;10.82;;;2.53;;
48323;SDS011;34133;55.714;37.670;2022-08-19T11:11:40;7.10;;;2.33;;
48323;SDS011;34133;55.714;37.670;2022-08-19T11:14:07;13.00;;;2.50;;
48323;SDS011;34133;55.714;37.670;2022-08-19T11:16:35;10.93;;;2.63;;
48323;SDS011;34133;55.714;37.670;2022-08-19T11:19:03;7.55;;;2.25;;
48323;SDS011;34133;55.714;37.670;2022-08-19T11:21:33;5.45;;;2.50;;
48323;SDS011;34133;55.714;37.670;2022-08-19T11:24:00;9.25;;;2.60;;
48323;SDS011;34133;55.714;37.670;2022-08-19T11:26:26;8.32;;;2.22;;
48323;SDS011;34133;55.714;37.670;2022-08-19T11:28:51;10.93;;;2.20;;
48323;SDS011;34133;55.714;37.670;2022-08-19T11:31:20;9.77;;;2.00;;
48323;SDS011;34133;55.714;37.670;2022-08-19T11:33:46;9.75;;;2.33;;
48323;SDS011;34133;55.714;37.670;2022-08-19T11:36:15;7.72;;;1.80;;
48323;SDS011;34133;55.714;37.670;2022-08-19T11:38:41;5.38;;;1.80;;
48323;SDS011;34133;55.714;37.670;2022-08-19T11:41:07;13.68;;;2.90;;
48323;SDS011;34133;55.714;37.670;2022-08-19T11:43:33;5.85;;;2.20;;
48323;SDS011;34133;55.714;37.670;2022-08-19T11:45:59;7.55;;;2.78;;
48323;SDS011;34133;55.714;37.670;2022-08-19T11:48:25;7.03;;;2.10;;
48323;SDS011;34133;55.714;37.670;2022-08-19T11:50:51;7.05;;;2.58;;
48323;SDS011;34133;55.714;37.670;2022-08-19T11:53:18;13.40;;;2.40;;
48323;SDS011;34133;55.714;37.670;2022-08-19T11:55:48;12.95;;;2.60;;
48323;SDS011;34133;55.714;37.670;2022-08-19T11:58:14;6.35;;;2.15;;
48323;SDS011;34133;55.714;37.670;2022-08-19T12:00:40;9.70;;;2.90;;
48323;SDS011;34133;55.714;37.670;2022-08-19T12:03:06;11.40;;;2.47;;
48323;SDS011;34133;55.714;37.670;2022-08-19T12:05:32;11.30;;;3.45;;
48323;SDS011;34133;55.714;37.670;2022-08-19T12:07:57;7.75;;;2.20;;
48323;SDS011;34133;55.714;37.670;2022-08-19T12:10:23;7.38;;;2.45;;
48323;SDS011;34133;55.714;37.670;2022-08-19T12:12:49;10.57;;;2.78;;
48323;SDS011;34133;55.714;37.670;2022-08-19T12:15:14;7.03;;;2.53;;
48323;SDS011;34133;55.714;37.670;2022-08-19T12:17:40;10.50;;;2.78;;
48323;SDS011;34133;55.714;37.670;2022-08-19T12:20:07;9.63;;;2.95;;
48323;SDS011;34133;55.714;37.670;2022-08-19T12:22:34;14.02;;;3.35;;
48323;SDS011;34133;55.714;37.670;2022-08-19T12:25:00;13.48;;;3.08;;
48323;SDS011;34133;55.714;37.670;2022-08-19T12:27:25;6.95;;;3.25;;
48323;SDS011;34133;55.714;37.670;2022-08-19T12:29:51;8.80;;;3.45;;
48323;SDS011;34133;55.714;37.670;2022-08-19T12:32:17;5.72;;;2.95;;
48323;SDS011;34133;55.714;37.670;2022-08-19T12:35:06;8.82;;;2.97;;
48323;SDS011;34133;55.714;37.670;2022-08-19T12:37:38;11.85;;;3.10;;
48323;SDS011;34133;55.714;37.670;2022-08-19T12:40:04;6.35;;;2.55;;
48323;SDS011;34133;55.714;37.670;2022-08-19T12:42:30;9.15;;;2.50;;
48323;SDS011;34133;55.714;37.670;2022-08-19T12:44:56;15.70;;;2.83;;
48323;SDS011;34133;55.714;37.670;2022-08-19T12:47:22;10.80;;;2.65;;
48323;SDS011;34133;55.714;37.670;2022-08-19T12:49:48;12.38;;;3.47;;
48323;SDS011;34133;55.714;37.670;2022-08-19T12:52:14;10.55;;;3.35;;
48323;SDS011;34133;55.714;37.670;2022-08-19T12:54:49;11.45;;;2.78;;
48323;SDS011;34133;55.714;37.670;2022-08-19T12:57:15;12.50;;;3.35;;
48323;SDS011;34133;55.714;37.670;2022-08-19T12:59:41;9.90;;;3.08;;
48323;SDS011;34133;55.714;37.670;2022-08-19T13:02:07;11.02;;;3.38;;
48323;SDS011;34133;55.714;37.670;2022-08-19T13:04:33;9.55;;;2.38;;
48323;SDS011;34133;55.714;37.670;2022-08-19T13:07:03;9.73;;;2.70;;
48323;SDS011;34133;55.714;37.670;2022-08-19T13:09:29;11.20;;;2.90;;
48323;SDS011;34133;55.714;37.670;2022-08-19T13:11:54;15.50;;;3.50;;
48323;SDS011;34133;55.714;37.670;2022-08-19T13:14:21;13.82;;;3.65;;
48323;SDS011;34133;55.714;37.670;2022-08-19T13:16:47;15.88;;;3.28;;
48323;SDS011;34133;55.714;37.670;2022-08-19T13:19:12;10.65;;;3.25;;
48323;SDS011;34133;55.714;37.670;2022-08-19T13:21:38;13.05;;;2.97;;
48323;SDS011;34133;55.714;37.670;2022-08-19T13:24:04;14.20;;;2.60;;
48323;SDS011;34133;55.714;37.670;2022-08-19T13:26:29;13.77;;;4.32;;
48323;SDS011;34133;55.714;37.670;2022-08-19T13:28:55;11.02;;;3.67;;
48323;SDS011;34133;55.714;37.670;2022-08-19T13:31:40;12.45;;;3.45;;
48323;SDS011;34133;55.714;37.670;2022-08-19T13:34:29;10.98;;;2.83;;
48323;SDS011;34133;55.714;37.670;2022-08-19T13:36:55;10.57;;;3.53;;
48323;SDS011;34133;55.714;37.670;2022-08-19T13:39:20;8.02;;;2.85;;
48323;SDS011;34133;55.714;37.670;2022-08-19T13:41:48;9.45;;;3.30;;
48323;SDS011;34133;55.714;37.670;2022-08-19T13:44:15;12.10;;;3.45;;
48323;SDS011;34133;55.714;37.670;2022-08-19T13:46:43;12.95;;;3.20;;
48323;SDS011;34133;55.714;37.670;2022-08-19T13:49:10;10.13;;;3.17;;
48323;SDS011;34133;55.714;37.670;2022-08-19T13:51:36;10.52;;;3.55;;
48323;SDS011;34133;55.714;37.670;2022-08-19T13:54:02;11.68;;;2.92;;
48323;SDS011;34133;55.714;37.670;2022-08-19T13:56:28;8.98;;;2.92;;
48323;SDS011;34133;55.714;37.670;2022-08-19T13:58:53;15.32;;;3.33;;
48323;SDS011;34133;55.714;37.670;2022-08-19T14:01:20;9.40;;;3.28;;
48323;SDS011;34133;55.714;37.670;2022-08-19T14:03:46;10.82;;;3.20;;
48323;SDS011;34133;55.714;37.670;2022-08-19T14:06:12;10.25;;;3.33;;
48323;SDS011;34133;55.714;37.670;2022-08-19T14:08:37;9.32;;;3.22;;
48323;SDS011;34133;55.714;37.670;2022-08-19T14:11:04;13.80;;;3.53;;
48323;SDS011;34133;55.714;37.670;2022-08-19T14:13:30;11.30;;;3.65;;
48323;SDS011;34133;55.714;37.670;2022-08-19T14:15:57;8.68;;;4.30;;
48323;SDS011;34133;55.714;37.670;2022-08-19T14:18:23;14.43;;;3.65;;
48323;SDS011;34133;55.714;37.670;2022-08-19T14:20:50;10.18;;;5.05;;
48323;SDS011;34133;55.714;37.670;2022-08-19T14:23:15;8.85;;;4.18;;
48323;SDS011;34133;55.714;37.670;2022-08-19T14:25:41;8.77;;;4.38;;
48323;SDS011;34133;55.714;37.670;2022-08-19T14:28:06;10.20;;;5.60;;
48323;SDS011;34133;55.714;37.670;2022-08-19T14:30:33;15.95;;;6.63;;
48323;SDS011;34133;55.714;37.670;2022-08-19T14:33:00;14.15;;;7.03;;
48323;SDS011;34133;55.714;37.670;2022-08-19T14:35:26;14.98;;;6.68;;
48323;SDS011;34133;55.714;37.670;2022-08-19T14:37:53;14.88;;;8.05;;
48323;SDS011;34133;55.714;37.670;2022-08-19T14:40:23;19.00;;;8.57;;